Esmeralda — CCES — position and weather

sailwx.info

Track history (hours):
 
Tides and Currents Weather Stations Pressure Air Temp Water Temp Dewpoint Dewpoint Depression Visibility Wind Speed Wind Dir Waves Ship Positions

Esmeralda (Chile)

Last reported at 2018-Nov-04 23:54 UTC. Time now 2018-Dec-10 23:47 UTC.
Position S 32°58' W 071°35'.
Warning: this ship's position is 35 days out of date.

Length 113 m; draft 7 m.

Type: Military. MMSI: 725019006.

Date/timePositionNaut miles runAvg speedWind from/ knotsBaromVisibWave heightAir tempDewpointWater temp
2018-Nov-04 23:54S 32°58' W 071°35'5 4.6
2018-Nov-04 22:55S 33°02' W 071°37'0 0.0
2018-Nov-04 22:16S 33°02' W 071°37'0 0.0
2018-Nov-04 21:55S 33°02' W 071°37'0 0.0
2018-Nov-04 21:10S 33°02' W 071°37'  
2018-Oct-29 14:05S 32°58' W 071°38'110.5
2018-Oct-29 14:00S 32°58' W 071°37'510.6
2018-Oct-29 13:30S 32°52' W 071°39'1 1.5
2018-Oct-29 13:03S 32°52' W 071°39'110.6
2018-Oct-29 13:00S 32°52' W 071°39'510.1
2018-Oct-29 12:30S 32°57' W 071°37'4 5.3
2018-Oct-29 11:49S 33°01' W 071°36'2 1.6
2018-Oct-29 10:49S 33°02' W 071°37'0 0.0
2018-Oct-29 10:25S 33°02' W 071°37'  
Track history (hours):
 
Tides and Currents Weather Stations Pressure Air Temp Water Temp Dewpoint Dewpoint Depression Visibility Wind Speed Wind Dir Waves Ship Positions

Esmeralda (Chile)

Last reported at 2018-Nov-04 23:54 UTC. Time now 2018-Dec-10 23:47 UTC.
Position S 32°58' W 071°35'.
Warning: this ship's position is 35 days out of date.

Length 113 m; draft 7 m.

Type: Military. MMSI: 725019006.

Date/timePositionNaut miles runAvg speedWind from/ knotsBaromVisibWave heightAir tempDewpointWater temp
2018-Nov-04 23:54S 32°58' W 071°35'5 4.6
2018-Nov-04 22:55S 33°02' W 071°37'0 0.0
2018-Nov-04 22:16S 33°02' W 071°37'0 0.0
2018-Nov-04 21:55S 33°02' W 071°37'0 0.0
2018-Nov-04 21:10S 33°02' W 071°37'  
2018-Oct-29 14:05S 32°58' W 071°38'110.5
2018-Oct-29 14:00S 32°58' W 071°37'510.6
2018-Oct-29 13:30S 32°52' W 071°39'1 1.5
2018-Oct-29 13:03S 32°52' W 071°39'110.6
2018-Oct-29 13:00S 32°52' W 071°39'510.1
2018-Oct-29 12:30S 32°57' W 071°37'4 5.3
2018-Oct-29 11:49S 33°01' W 071°36'2 1.6
2018-Oct-29 10:49S 33°02' W 071°37'0 0.0
2018-Oct-29 10:25S 33°02' W 071°37'  

Dump ship's entire track history